Time;durP1;ratioP1;P1;durP2;ratioP2;P2;SDS_P1;SDS_P2;PMS_P1;PMS_P2;Temp;Humidity;BMP_temperature;BMP_pressure;BME280_temperature;BME280_humidity;BME280_pressure;Samples;Min_cycle;Max_cycle;Signal;HPM_P1;HPM_P2
2022/03/02 00:00:44;;;;;;;26.73;17.20;;;7.00;93.70;;;;;;5006319;28;20030;-66
2022/03/02 00:03:09;;;;;;;32.53;19.40;;;7.10;99.90;;;;;;4990206;28;20051;-66
2022/03/02 00:05:36;;;;;;;27.33;19.13;;;7.00;94.90;;;;;;5007201;28;20359;-65
2022/03/02 00:08:03;;;;;;;24.07;17.07;;;7.00;93.80;;;;;;5008004;28;20168;-66
2022/03/02 00:10:29;;;;;;;28.30;18.90;;;7.10;99.90;;;;;;5008804;28;20022;-66
2022/03/02 00:12:55;;;;;;;25.60;18.23;;;7.10;99.90;;;;;;5008181;28;20037;-66
2022/03/02 00:15:21;;;;;;;29.03;18.50;;;;;;;;;;4997864;28;20336;-66
2022/03/02 00:17:46;;;;;;;26.77;18.87;;;7.00;99.90;;;;;;4989006;28;20031;-66
2022/03/02 00:20:12;;;;;;;26.37;18.10;;;6.90;99.90;;;;;;4992276;28;20399;-66
2022/03/02 00:22:39;;;;;;;27.87;18.07;;;6.90;99.90;;;;;;4992756;28;20459;-66
2022/03/02 00:25:05;;;;;;;30.57;20.37;;;;;;;;;;4992198;28;20125;-65
2022/03/02 00:27:31;;;;;;;28.80;19.47;;;6.90;99.90;;;;;;4992680;28;20140;-66
2022/03/02 00:29:57;;;;;;;25.33;16.90;;;;;;;;;;4992056;28;20383;-66
2022/03/02 00:32:22;;;;;;;28.27;17.97;;;6.90;99.90;;;;;;4992439;28;20530;-66
2022/03/02 00:34:48;;;;;;;24.10;16.30;;;6.80;94.30;;;;;;4993655;28;20081;-66
2022/03/02 00:37:14;;;;;;;32.13;20.00;;;6.80;99.90;;;;;;5012033;28;20029;-65
2022/03/02 00:39:41;;;;;;;29.60;18.83;;;6.90;97.60;;;;;;5011736;28;20053;-66
2022/03/02 00:42:06;;;;;;;24.47;18.03;;;6.90;99.90;;;;;;5011726;28;20438;-66
2022/03/02 00:44:33;;;;;;;25.07;16.40;;;7.00;98.30;;;;;;5011875;28;20083;-66
2022/03/02 00:46:59;;;;;;;24.00;15.97;;;6.80;99.90;;;;;;5010809;28;20375;-65
2022/03/02 00:49:26;;;;;;;26.73;19.27;;;6.90;99.90;;;;;;5011833;28;20026;-65
2022/03/02 00:51:54;;;;;;;25.13;17.40;;;6.90;99.90;;;;;;4997221;28;20030;-66
2022/03/02 00:54:19;;;;;;;25.87;17.53;;;6.90;99.90;;;;;;4992297;28;20133;-65
2022/03/02 00:56:45;;;;;;;25.53;17.83;;;7.00;99.90;;;;;;4974313;28;20118;-65
2022/03/02 00:59:10;;;;;;;25.20;17.00;;;6.80;99.90;;;;;;4991835;28;20432;-66
2022/03/02 01:01:36;;;;;;;29.93;19.43;;;6.90;99.90;;;;;;4991285;28;20043;-65
2022/03/02 01:04:02;;;;;;;28.93;19.33;;;;;;;;;;4991383;28;20044;-66
2022/03/02 01:06:28;;;;;;;22.77;17.50;;;;;;;;;;5007154;28;20065;-66
2022/03/02 01:08:54;;;;;;;31.63;19.30;;;;;;;;;;5010899;28;20477;-66
2022/03/02 01:11:19;;;;;;;28.43;18.37;;;6.70;99.90;;;;;;5011458;28;20026;-66
2022/03/02 01:13:46;;;;;;;23.60;15.20;;;;;;;;;;5011132;28;20107;-66
2022/03/02 01:16:13;;;;;;;23.80;15.33;;;6.60;99.90;;;;;;5010483;28;20034;-66
2022/03/02 01:18:39;;;;;;;25.57;17.83;;;;;;;;;;4993651;28;20041;-66
2022/03/02 01:21:05;;;;;;;24.83;17.50;;;6.30;96.90;;;;;;5001046;28;20118;-66
2022/03/02 01:23:30;;;;;;;24.43;16.53;;;6.70;99.90;;;;;;4991577;28;20068;-65
2022/03/02 01:25:56;;;;;;;24.63;15.50;;;6.50;99.90;;;;;;4991121;28;20062;-66
2022/03/02 01:28:21;;;;;;;35.07;21.70;;;6.50;99.90;;;;;;4991545;28;20026;-66
2022/03/02 01:30:47;;;;;;;29.50;18.20;;;6.50;99.90;;;;;;4994089;28;20041;-65
2022/03/02 01:33:13;;;;;;;27.97;19.77;;;;;;;;;;5010972;28;20030;-65
2022/03/02 01:35:39;;;;;;;31.10;19.33;;;;;;;;;;5010963;28;20026;-65
2022/03/02 01:38:04;;;;;;;27.33;18.70;;;;;;;;;;5010566;28;20470;-65
2022/03/02 01:40:30;;;;;;;30.23;19.80;;;6.40;99.90;;;;;;5010919;28;20034;-66
2022/03/02 01:42:56;;;;;;;29.53;19.63;;;;;;;;;;4991130;28;20035;-65
2022/03/02 01:45:22;;;;;;;28.63;19.40;;;6.70;99.90;;;;;;4990735;28;20073;-66
2022/03/02 01:47:48;;;;;;;29.13;19.37;;;6.30;94.90;;;;;;4990900;28;20379;-66
2022/03/02 01:50:15;;;;;;;29.93;20.77;;;6.40;99.90;;;;;;5008623;28;20048;-66
2022/03/02 01:52:41;;;;;;;28.10;20.47;;;6.60;99.90;;;;;;5010461;28;20033;-66
2022/03/02 01:55:08;;;;;;;33.60;21.43;;;6.30;95.00;;;;;;5010464;28;20026;-66
2022/03/02 01:57:35;;;;;;;26.27;19.03;;;;;;;;;;5010594;28;20021;-65
2022/03/02 02:00:02;;;;;;;36.30;20.90;;;6.40;99.90;;;;;;5008000;28;20033;-65
2022/03/02 02:02:28;;;;;;;24.87;16.93;;;6.40;99.90;;;;;;4992629;28;20400;-66
2022/03/02 02:04:54;;;;;;;25.27;16.97;;;;;;;;;;4990329;28;20038;-66
2022/03/02 02:07:22;;;;;;;27.37;18.73;;;6.30;99.90;;;;;;4991058;28;20026;-66
2022/03/02 02:09:48;;;;;;;31.20;21.37;;;;;;;;;;4972971;28;20044;-65
2022/03/02 02:12:14;;;;;;;28.63;18.67;;;6.30;99.90;;;;;;4990356;28;20398;-65
2022/03/02 02:14:39;;;;;;;29.17;19.70;;;6.20;99.90;;;;;;4990287;28;20034;-65
2022/03/02 02:17:05;;;;;;;30.40;20.97;;;6.20;99.90;;;;;;5001582;28;20030;-65
2022/03/02 02:19:30;;;;;;;29.40;20.67;;;6.20;99.90;;;;;;4991076;28;20514;-65
2022/03/02 02:21:56;;;;;;;28.80;18.67;;;;;;;;;;5009424;28;20026;-65
2022/03/02 02:24:24;;;;;;;28.00;19.43;;;6.30;99.90;;;;;;5010069;28;20033;-65
2022/03/02 02:26:49;;;;;;;28.90;18.97;;;6.10;99.90;;;;;;4991695;28;20017;-65
2022/03/02 02:29:15;;;;;;;32.33;19.50;;;6.10;99.90;;;;;;5009848;28;20033;-66
2022/03/02 02:31:41;;;;;;;28.63;18.50;;;6.10;99.90;;;;;;5004307;28;20489;-66
2022/03/02 02:34:06;;;;;;;28.53;19.83;;;6.10;99.90;;;;;;4990197;28;20121;-65
2022/03/02 02:36:32;;;;;;;24.70;16.33;;;6.20;99.90;;;;;;4990383;28;20022;-65
2022/03/02 02:38:58;;;;;;;29.10;20.37;;;6.10;99.90;;;;;;4989833;28;20100;-65
2022/03/02 02:41:24;;;;;;;27.30;19.63;;;;;;;;;;4989858;28;20030;-65
2022/03/02 02:43:50;;;;;;;36.60;23.20;;;6.00;99.90;;;;;;5007414;28;20049;-65
2022/03/02 02:46:15;;;;;;;28.50;20.73;;;6.10;99.90;;;;;;5008093;28;20077;-65
2022/03/02 02:48:41;;;;;;;36.13;22.27;;;6.00;99.90;;;;;;5009246;28;20030;-66
2022/03/02 02:51:07;;;;;;;32.43;21.40;;;;;;;;;;5009419;28;20025;-65
2022/03/02 02:53:33;;;;;;;28.63;19.93;;;5.90;99.90;;;;;;5009669;28;20034;-65
2022/03/02 02:55:59;;;;;;;29.53;19.70;;;;;;;;;;5008994;28;20032;-65
2022/03/02 02:58:24;;;;;;;30.97;21.50;;;5.80;99.90;;;;;;5009113;28;20037;-65
2022/03/02 03:00:50;;;;;;;33.50;22.70;;;5.80;99.90;;;;;;5008381;28;20030;-66
2022/03/02 03:03:16;;;;;;;32.20;23.13;;;5.80;99.90;;;;;;5009519;28;20061;-65
2022/03/02 03:05:44;;;;;;;32.47;20.27;;;6.10;95.70;;;;;;5009284;28;20088;-65
2022/03/02 03:08:11;;;;;;;37.17;20.73;;;5.90;99.20;;;;;;5009280;28;20037;-66
2022/03/02 03:10:38;;;;;;;29.87;19.00;;;5.90;95.70;;;;;;4995117;28;20026;-66
2022/03/02 03:13:04;;;;;;;28.93;19.73;;;5.80;99.90;;;;;;4988890;28;20049;-66
2022/03/02 03:15:30;;;;;;;28.60;18.67;;;6.00;99.90;;;;;;4989827;28;20030;-66
2022/03/02 03:17:56;;;;;;;25.40;18.30;;;5.90;99.90;;;;;;4989177;28;20454;-65
2022/03/02 03:20:25;;;;;;;26.17;18.17;;;5.90;99.90;;;;;;4989800;28;20034;-66
2022/03/02 03:22:51;;;;;;;28.13;19.23;;;6.10;99.90;;;;;;4989220;28;20037;-66
2022/03/02 03:25:17;;;;;;;28.63;19.77;;;6.00;99.90;;;;;;4989387;28;20446;-65
2022/03/02 03:27:43;;;;;;;28.83;18.60;;;6.00;96.00;;;;;;4989139;28;20027;-65
2022/03/02 03:30:10;;;;;;;31.93;20.37;;;5.90;99.90;;;;;;4989388;28;20402;-65
2022/03/02 03:32:36;;;;;;;39.47;22.27;;;5.90;99.90;;;;;;4989542;28;20360;-66
2022/03/02 03:35:03;;;;;;;34.37;22.13;;;5.90;98.50;;;;;;4988980;28;20023;-66
2022/03/02 03:37:29;;;;;;;30.50;19.93;;;;;;;;;;4989531;28;20030;-66
2022/03/02 03:39:55;;;;;;;31.37;19.80;;;5.80;99.90;;;;;;4996767;28;20372;-66
2022/03/02 03:42:23;;;;;;;29.20;20.07;;;5.80;99.90;;;;;;5008670;28;20058;-66
2022/03/02 03:44:48;;;;;;;31.30;20.63;;;;;;;;;;5008809;28;20123;-65
2022/03/02 03:47:14;;;;;;;32.20;21.37;;;5.60;99.90;;;;;;5009045;28;20043;-66
2022/03/02 03:49:41;;;;;;;31.40;20.60;;;5.70;95.90;;;;;;5005252;28;20034;-65
2022/03/02 03:52:06;;;;;;;31.23;21.87;;;5.50;96.60;;;;;;4989173;28;20034;-66
2022/03/02 03:54:32;;;;;;;33.50;20.03;;;5.40;99.90;;;;;;4975001;28;20034;-66
2022/03/02 03:56:58;;;;;;;29.83;21.77;;;6.10;99.90;;;;;;4992299;28;20191;-66
2022/03/02 03:59:23;;;;;;;32.07;19.70;;;5.50;99.90;;;;;;4993340;28;20089;-65
2022/03/02 04:01:49;;;;;;;31.97;20.97;;;;;;;;;;5012133;28;20054;-65
2022/03/02 04:04:15;;;;;;;29.37;19.10;;;5.80;99.90;;;;;;5012599;28;20129;-66
2022/03/02 04:06:40;;;;;;;29.13;18.63;;;5.40;99.90;;;;;;5012409;28;20420;-65
2022/03/02 04:09:06;;;;;;;32.43;20.47;;;5.50;99.90;;;;;;5012323;28;20378;-65
2022/03/02 04:11:31;;;;;;;28.03;18.93;;;5.60;99.90;;;;;;5012195;28;20436;-65
2022/03/02 04:13:57;;;;;;;33.93;21.07;;;5.50;99.90;;;;;;5011925;28;20534;-66
2022/03/02 04:16:23;;;;;;;29.97;18.97;;;5.30;99.90;;;;;;4996174;28;20030;-65
2022/03/02 04:18:49;;;;;;;34.53;21.63;;;;;;;;;;4997311;28;20087;-65
2022/03/02 04:21:15;;;;;;;34.30;22.13;;;5.20;99.90;;;;;;5012325;28;20364;-65
2022/03/02 04:23:41;;;;;;;33.37;21.37;;;;;;;;;;5011875;28;20044;-65
2022/03/02 04:26:07;;;;;;;32.47;20.73;;;5.30;99.90;;;;;;5011579;28;20367;-66
2022/03/02 04:28:33;;;;;;;30.60;20.13;;;5.20;99.90;;;;;;5012249;28;20475;-65
2022/03/02 04:30:58;;;;;;;32.60;22.13;;;5.20;99.90;;;;;;5003366;28;20542;-66
2022/03/02 04:33:24;;;;;;;34.83;21.83;;;5.20;99.90;;;;;;4996641;28;20026;-65
2022/03/02 04:35:49;;;;;;;27.00;18.27;;;5.30;99.90;;;;;;5011525;28;20102;-65
2022/03/02 04:38:15;;;;;;;29.53;19.47;;;5.20;97.30;;;;;;5011988;28;20033;-66
2022/03/02 04:40:41;;;;;;;30.83;18.20;;;5.00;99.90;;;;;;5009625;28;20131;-65
2022/03/02 04:43:07;;;;;;;24.80;17.07;;;;;;;;;;5011646;28;20073;-66
2022/03/02 04:45:32;;;;;;;32.93;19.37;;;5.20;99.90;;;;;;5011911;28;20186;-66
2022/03/02 04:47:59;;;;;;;31.90;20.63;;;5.30;99.90;;;;;;5011280;28;20022;-65
2022/03/02 04:50:25;;;;;;;30.83;18.47;;;5.30;99.90;;;;;;5008206;28;20499;-65
2022/03/02 04:52:53;;;;;;;28.10;19.50;;;5.20;99.90;;;;;;4991593;28;20057;-65
2022/03/02 04:55:19;;;;;;;37.50;22.47;;;5.40;99.90;;;;;;4991809;28;20030;-65
2022/03/02 04:57:54;;;;;;;26.90;17.43;;;5.30;97.90;;;;;;4991858;28;20030;-65
2022/03/02 05:00:29;;;;;;;21.40;15.87;;;5.30;99.90;;;;;;4992191;28;20241;-65
2022/03/02 05:02:55;;;;;;;34.63;21.23;;;5.30;99.90;;;;;;5010932;28;20061;-65
2022/03/02 05:05:23;;;;;;;30.50;19.90;;;5.20;99.90;;;;;;5010221;28;20038;-66
2022/03/02 05:07:49;;;;;;;39.30;22.60;;;5.20;98.20;;;;;;5010946;28;20014;-65
2022/03/02 05:10:16;;;;;;;32.13;20.63;;;5.10;99.90;;;;;;5011022;28;20434;-65
2022/03/02 05:12:42;;;;;;;34.03;24.37;;;5.20;99.90;;;;;;5010752;28;20030;-65
2022/03/02 05:15:09;;;;;;;33.60;21.23;;;5.10;99.90;;;;;;5010993;28;20388;-65
2022/03/02 05:17:36;;;;;;;37.73;23.00;;;5.10;99.90;;;;;;5011366;28;20099;-65
2022/03/02 05:20:06;;;;;;;35.90;23.13;;;5.00;99.30;;;;;;5010846;28;20030;-65
2022/03/02 05:22:32;;;;;;;29.60;19.20;;;4.80;99.90;;;;;;4994184;28;20022;-65
2022/03/02 05:24:57;;;;;;;31.23;21.40;;;5.00;99.90;;;;;;5010886;28;20026;-65
2022/03/02 05:27:24;;;;;;;34.13;21.03;;;;;;;;;;5011274;28;20025;-65
2022/03/02 05:29:49;;;;;;;34.03;19.60;;;4.90;99.90;;;;;;5010574;28;20017;-65
2022/03/02 05:32:15;;;;;;;34.00;21.77;;;4.80;99.90;;;;;;4995416;28;20105;-66
2022/03/02 05:34:40;;;;;;;33.40;20.37;;;4.60;99.90;;;;;;4991290;28;20041;-65
2022/03/02 05:37:06;;;;;;;31.27;19.93;;;;;;;;;;4990667;28;20113;-65
2022/03/02 05:39:32;;;;;;;42.50;25.67;;;4.60;99.90;;;;;;4991891;28;20037;-65
2022/03/02 05:41:57;;;;;;;38.30;25.10;;;4.50;99.90;;;;;;4991067;28;20049;-65
2022/03/02 05:44:23;;;;;;;34.47;23.17;;;4.60;99.90;;;;;;4991194;28;20080;-66
2022/03/02 05:46:49;;;;;;;39.50;25.93;;;4.50;99.90;;;;;;4998725;28;20489;-65
2022/03/02 05:49:15;;;;;;;39.90;25.10;;;4.60;99.90;;;;;;5010522;28;20025;-65
2022/03/02 05:51:41;;;;;;;32.80;20.37;;;4.40;99.90;;;;;;5009985;28;20029;-65
2022/03/02 05:54:08;;;;;;;38.93;24.93;;;4.40;99.90;;;;;;5009063;28;20057;-65
2022/03/02 05:56:37;;;;;;;36.60;25.23;;;4.40;99.90;;;;;;5010753;28;20026;-65
2022/03/02 05:59:03;;;;;;;35.57;22.47;;;4.40;99.90;;;;;;5010084;28;20457;-65
2022/03/02 06:01:29;;;;;;;40.23;24.90;;;4.40;99.90;;;;;;5001388;28;20048;-65
2022/03/02 06:03:55;;;;;;;35.23;23.63;;;;;;;;;;4990278;28;20034;-65
2022/03/02 06:06:21;;;;;;;35.40;21.93;;;4.20;99.90;;;;;;4990451;28;20033;-65
2022/03/02 06:08:46;;;;;;;38.80;24.53;;;4.30;99.90;;;;;;4990677;28;20066;-65
2022/03/02 06:11:12;;;;;;;35.50;24.73;;;4.10;99.90;;;;;;4993675;28;20091;-66
2022/03/02 06:13:38;;;;;;;45.10;28.10;;;4.10;99.90;;;;;;4990293;28;20064;-65
2022/03/02 06:16:04;;;;;;;39.83;24.47;;;;;;;;;;5008052;28;20511;-66
2022/03/02 06:18:29;;;;;;;38.30;24.80;;;4.00;99.90;;;;;;5009735;28;20037;-66
2022/03/02 06:21:02;;;;;;;36.77;24.03;;;4.10;99.90;;;;;;5008812;28;20030;-65
2022/03/02 06:23:28;;;;;;;38.13;23.53;;;4.10;99.90;;;;;;5009076;28;20058;-65
2022/03/02 06:25:54;;;;;;;41.90;23.73;;;4.00;99.90;;;;;;5009229;28;20034;-66
2022/03/02 06:28:20;;;;;;;36.10;22.77;;;;;;;;;;5009315;28;20032;-66
2022/03/02 06:30:46;;;;;;;37.13;25.70;;;3.80;99.90;;;;;;5009321;28;20109;-65
2022/03/02 06:33:15;;;;;;;40.13;24.67;;;4.10;99.90;;;;;;4998116;28;20446;-65
2022/03/02 06:35:40;;;;;;;35.17;23.70;;;4.10;99.90;;;;;;4994961;28;20395;-65
2022/03/02 06:38:06;;;;;;;32.47;21.43;;;4.10;99.90;;;;;;4989766;28;20105;-65
2022/03/02 06:40:32;;;;;;;41.03;23.90;;;4.40;99.90;;;;;;4992965;28;20130;-66
2022/03/02 06:43:03;;;;;;;34.23;22.73;;;3.90;99.90;;;;;;5009295;28;20057;-65
2022/03/02 06:45:28;;;;;;;40.97;25.03;;;3.80;99.90;;;;;;5009713;28;20097;-66
2022/03/02 06:48:00;;;;;;;47.90;26.60;;;4.80;99.90;;;;;;5008969;28;20037;-66
2022/03/02 06:50:30;;;;;;;38.10;23.13;;;3.90;99.90;;;;;;5009280;28;20029;-66
2022/03/02 06:53:02;;;;;;;35.27;24.33;;;4.00;99.90;;;;;;5009128;28;20475;-67
2022/03/02 06:55:30;;;;;;;40.70;25.90;;;3.80;99.90;;;;;;4999887;28;20340;-67
2022/03/02 06:57:56;;;;;;;30.77;21.03;;;;;;;;;;5006267;28;20034;-67
2022/03/02 07:00:23;;;;;;;40.53;24.13;;;3.90;99.90;;;;;;5005000;28;20022;-67
2022/03/02 07:03:10;;;;;;;32.93;21.47;;;4.00;99.90;;;;;;4989286;28;20515;-67
2022/03/02 07:05:37;;;;;;;34.17;22.83;;;4.10;99.90;;;;;;4988931;28;20046;-67
2022/03/02 07:08:04;;;;;;;41.47;25.07;;;4.00;99.90;;;;;;4989157;28;20431;-67
2022/03/02 07:10:34;;;;;;;33.57;21.97;;;4.10;99.90;;;;;;4989889;28;20079;-67
2022/03/02 07:13:02;;;;;;;35.67;21.80;;;3.90;99.90;;;;;;5004653;28;20040;-67
2022/03/02 07:15:29;;;;;;;35.90;20.83;;;4.20;99.90;;;;;;5029141;28;20021;-67
2022/03/02 07:17:54;;;;;;;34.77;22.17;;;4.30;99.90;;;;;;5028532;28;20029;-67
2022/03/02 07:20:20;;;;;;;37.40;24.20;;;4.40;99.90;;;;;;5028593;28;20381;-67
2022/03/02 07:22:52;;;;;;;41.53;24.20;;;4.30;99.90;;;;;;5028679;28;20033;-67
2022/03/02 07:25:20;;;;;;;35.87;23.03;;;4.30;99.90;;;;;;5028755;28;20079;-67
2022/03/02 07:27:46;;;;;;;40.50;24.30;;;4.50;99.90;;;;;;5027673;28;20017;-67
2022/03/02 07:30:12;;;;;;;40.53;25.83;;;4.40;99.90;;;;;;5010704;28;20377;-67
2022/03/02 07:32:43;;;;;;;36.93;24.07;;;4.50;99.90;;;;;;4993640;28;20483;-68
2022/03/02 07:35:09;;;;;;;38.63;26.17;;;;;;;;;;4975397;28;20030;-67
2022/03/02 07:37:36;;;;;;;38.50;26.37;;;4.50;99.90;;;;;;5012903;28;20022;-68
2022/03/02 07:40:03;;;;;;;36.73;23.13;;;4.80;99.90;;;;;;5012235;28;20056;-67
2022/03/02 07:42:29;;;;;;;39.77;24.57;;;;;;;;;;5012011;28;20025;-67
2022/03/02 07:44:55;;;;;;;41.53;26.50;;;4.60;99.90;;;;;;5012243;28;20121;-67
2022/03/02 07:47:21;;;;;;;38.87;25.37;;;;;;;;;;4997885;28;20038;-67
2022/03/02 07:49:47;;;;;;;34.40;23.80;;;4.70;99.90;;;;;;4992555;28;20066;-67
2022/03/02 07:52:14;;;;;;;38.13;25.73;;;4.80;99.90;;;;;;4993041;28;20018;-67
2022/03/02 07:54:42;;;;;;;37.43;24.67;;;4.90;99.90;;;;;;4994853;28;20034;-67
2022/03/02 07:57:09;;;;;;;36.60;25.40;;;5.00;99.90;;;;;;5011235;28;20785;-67
2022/03/02 07:59:40;;;;;;;31.37;20.87;;;5.00;99.90;;;;;;5009399;28;20030;-67
2022/03/02 08:02:08;;;;;;;33.33;23.97;;;5.20;99.90;;;;;;5010791;28;20046;-67
2022/03/02 08:04:36;;;;;;;40.57;24.57;;;5.20;99.90;;;;;;5012319;28;20034;-67
2022/03/02 08:07:03;;;;;;;34.93;22.63;;;5.10;99.90;;;;;;5008179;28;20088;-67
2022/03/02 08:09:31;;;;;;;32.40;22.27;;;5.00;99.90;;;;;;5011694;28;20030;-66
2022/03/02 08:11:58;;;;;;;36.53;22.83;;;5.20;99.90;;;;;;5011233;28;20417;-67
2022/03/02 08:14:24;;;;;;;36.63;20.83;;;5.50;99.90;;;;;;5012028;28;20030;-66
2022/03/02 08:16:51;;;;;;;39.37;24.17;;;5.40;99.90;;;;;;5008997;28;20026;-67
2022/03/02 08:19:18;;;;;;;29.40;20.80;;;5.30;99.90;;;;;;5011552;28;20117;-67
2022/03/02 08:21:56;;;;;;;28.90;20.77;;;5.50;99.90;;;;;;5011487;28;20026;-67
2022/03/02 08:24:26;;;;;;;28.00;17.03;;;5.60;99.90;;;;;;5011839;28;20103;-67
2022/03/02 08:26:54;;;;;;;33.73;19.30;;;5.50;99.90;;;;;;5009430;28;20048;-67
2022/03/02 08:29:20;;;;;;;31.57;20.67;;;5.90;99.90;;;;;;4992191;28;20029;-66
2022/03/02 08:31:47;;;;;;;32.27;20.93;;;5.80;99.90;;;;;;4990534;28;20026;-67
2022/03/02 08:34:14;;;;;;;25.20;17.30;;;5.90;99.90;;;;;;4974617;28;20117;-67
2022/03/02 08:36:43;;;;;;;28.67;19.70;;;5.90;99.90;;;;;;4992026;28;20033;-67
2022/03/02 08:39:13;;;;;;;26.80;18.40;;;5.10;97.20;;;;;;5009171;28;20029;-67
2022/03/02 08:41:39;;;;;;;27.07;17.03;;;6.10;97.90;;;;;;5006284;28;20503;-67
2022/03/02 08:44:06;;;;;;;28.70;19.77;;;6.30;99.90;;;;;;5010253;28;20034;-68
2022/03/02 08:46:32;;;;;;;27.27;19.20;;;6.40;99.90;;;;;;4992440;28;20080;-66
2022/03/02 08:48:58;;;;;;;26.90;19.40;;;6.60;99.70;;;;;;5001759;28;20034;-67
2022/03/02 08:51:26;;;;;;;29.43;18.97;;;6.50;99.90;;;;;;5003301;28;20026;-67
2022/03/02 08:53:54;;;;;;;34.43;20.33;;;6.40;99.90;;;;;;4981193;28;20137;-67
2022/03/02 08:56:20;;;;;;;32.73;18.90;;;;;;;;;;5000234;28;20014;-67
2022/03/02 08:58:46;;;;;;;26.77;18.00;;;6.70;99.90;;;;;;5010365;28;20049;-67
2022/03/02 09:01:13;;;;;;;25.43;16.47;;;6.80;94.20;;;;;;5010701;28;20049;-67
2022/03/02 09:03:51;;;;;;;26.93;16.87;;;6.80;94.30;;;;;;5004884;28;20031;-68
2022/03/02 09:06:19;;;;;;;29.13;17.17;;;6.80;99.90;;;;;;5009563;28;20029;-66
2022/03/02 09:08:45;;;;;;;26.93;17.40;;;6.90;99.90;;;;;;5010714;28;20029;-67
2022/03/02 09:11:11;;;;;;;28.67;17.17;;;;;;;;;;5010605;28;20038;-67
2022/03/02 09:13:38;;;;;;;25.80;17.03;;;7.00;99.60;;;;;;5010425;28;20037;-67
2022/03/02 09:16:05;;;;;;;26.40;18.57;;;7.10;99.80;;;;;;5009892;28;20033;-67
2022/03/02 09:18:31;;;;;;;24.37;16.47;;;7.20;99.90;;;;;;5011060;28;20096;-67
2022/03/02 09:21:06;;;;;;;24.90;17.00;;;7.20;93.10;;;;;;5010515;28;20085;-67
2022/03/02 09:23:34;;;;;;;24.53;15.80;;;7.10;99.90;;;;;;5011004;28;20257;-67
2022/03/02 09:26:08;;;;;;;25.67;17.03;;;7.40;92.60;;;;;;5010384;28;20527;-67
2022/03/02 09:28:37;;;;;;;24.83;17.50;;;7.20;98.80;;;;;;5010487;28;20387;-67
2022/03/02 09:31:04;;;;;;;27.20;17.77;;;7.40;95.50;;;;;;4992388;28;20105;-67
2022/03/02 09:33:31;;;;;;;27.13;17.80;;;7.40;93.20;;;;;;4994793;28;20030;-67
2022/03/02 09:35:59;;;;;;;25.20;17.70;;;7.10;92.80;;;;;;4990705;28;20026;-67
2022/03/02 09:38:27;;;;;;;25.67;17.23;;;7.50;95.90;;;;;;4976878;28;20495;-66
2022/03/02 09:40:55;;;;;;;30.07;18.90;;;7.70;97.80;;;;;;5010292;28;20116;-66
2022/03/02 09:43:25;;;;;;;28.53;20.70;;;7.70;97.70;;;;;;5010553;28;20482;-66
2022/03/02 09:45:56;;;;;;;26.63;18.60;;;7.70;95.80;;;;;;5010268;28;20041;-66
2022/03/02 09:48:31;;;;;;;26.97;17.10;;;7.70;90.20;;;;;;5010392;28;20057;-66
2022/03/02 09:50:59;;;;;;;24.83;14.90;;;7.80;98.00;;;;;;5009375;28;20026;-66
2022/03/02 09:53:28;;;;;;;19.63;13.67;;;8.00;98.30;;;;;;5010682;28;20030;-67
2022/03/02 09:56:01;;;;;;;25.43;17.07;;;7.80;90.60;;;;;;5009502;28;20026;-66
2022/03/02 09:58:27;;;;;;;20.53;14.53;;;;;;;;;;5009052;28;20026;-66
2022/03/02 10:00:55;;;;;;;22.20;15.87;;;8.10;98.30;;;;;;5008178;28;20777;-66
2022/03/02 10:03:26;;;;;;;22.97;15.97;;;8.10;97.70;;;;;;4992072;28;20038;-66
2022/03/02 10:05:53;;;;;;;20.90;15.20;;;8.00;91.10;;;;;;5009757;28;20498;-67
2022/03/02 10:08:20;;;;;;;21.10;14.60;;;7.90;97.80;;;;;;5009987;28;20033;-66
2022/03/02 10:10:48;;;;;;;21.30;13.80;;;8.10;96.10;;;;;;5010040;28;20030;-66
2022/03/02 10:13:16;;;;;;;21.40;14.77;;;8.20;97.60;;;;;;4991952;28;20030;-67
2022/03/02 10:15:42;;;;;;;22.03;16.50;;;;;;;;;;5004755;28;20044;-67
2022/03/02 10:18:11;;;;;;;18.17;13.40;;;8.50;97.70;;;;;;5009828;28;20034;-66
2022/03/02 10:20:39;;;;;;;24.93;17.90;;;8.20;90.60;;;;;;5009923;28;20547;-67
2022/03/02 10:23:31;;;;;;;22.57;15.77;;;8.20;95.90;;;;;;5007152;28;20038;-66
2022/03/02 10:26:11;;;;;;;19.20;13.67;;;8.50;94.50;;;;;;4975619;28;20151;-67
2022/03/02 10:29:04;;;;;;;23.73;16.83;;;8.20;97.40;;;;;;4997605;28;20029;-67
2022/03/02 10:31:45;;;;;;;28.53;18.20;;;8.30;97.20;;;;;;5000490;28;20030;-66
2022/03/02 10:34:29;;;;;;;23.17;17.37;;;8.30;97.30;;;;;;5008641;28;20136;-67
2022/03/02 10:37:16;;;;;;;23.20;17.47;;;8.30;93.90;;;;;;5006979;28;20505;-67
2022/03/02 10:40:06;;;;;;;22.87;16.07;;;8.70;92.90;;;;;;5009361;28;20319;-68
2022/03/02 10:42:35;;;;;;;23.43;15.87;;;8.40;97.10;;;;;;5009156;28;20084;-68
2022/03/02 10:45:21;;;;;;;25.33;16.10;;;8.40;88.20;;;;;;5008810;28;20137;-68
2022/03/02 10:47:47;;;;;;;24.67;18.57;;;;;;;;;;4998569;28;20029;-68
2022/03/02 10:50:14;;;;;;;23.90;16.37;;;8.50;96.10;;;;;;5005136;28;20643;-67
2022/03/02 10:52:40;;;;;;;24.77;17.53;;;8.40;96.10;;;;;;5008269;28;20033;-67
2022/03/02 10:55:09;;;;;;;25.97;16.33;;;8.50;88.60;;;;;;4998591;28;20479;-68
2022/03/02 10:57:36;;;;;;;21.03;15.67;;;8.50;96.50;;;;;;4992390;28;20025;-68
2022/03/02 11:00:17;;;;;;;23.13;15.17;;;8.50;96.40;;;;;;4989409;28;20026;-67
2022/03/02 11:02:45;;;;;;;20.97;14.57;;;8.60;96.60;;;;;;5007521;28;20042;-67
2022/03/02 11:05:14;;;;;;;20.43;14.27;;;8.70;92.00;;;;;;4992666;28;20399;-67
2022/03/02 11:07:41;;;;;;;21.20;15.37;;;8.20;96.20;;;;;;4991102;28;20018;-68
2022/03/02 11:10:09;;;;;;;22.63;14.57;;;8.50;96.40;;;;;;4972294;28;20097;-67
2022/03/02 11:12:39;;;;;;;21.03;16.47;;;8.60;89.40;;;;;;4996182;28;20026;-67
2022/03/02 11:15:07;;;;;;;21.10;14.80;;;8.60;96.00;;;;;;4999629;28;20391;-67
2022/03/02 11:17:33;;;;;;;20.07;13.53;;;8.70;95.70;;;;;;5009407;28;20060;-67
2022/03/02 11:20:05;;;;;;;20.23;15.50;;;8.90;89.30;;;;;;5007478;28;20034;-67
2022/03/02 11:22:31;;;;;;;18.77;13.90;;;;;;;;;;5009229;28;20030;-67
2022/03/02 11:24:59;;;;;;;22.80;16.50;;;8.70;95.60;;;;;;4999850;28;20398;-67
2022/03/02 11:27:45;;;;;;;23.30;17.63;;;8.70;94.60;;;;;;5000142;28;20367;-67
2022/03/02 11:30:16;;;;;;;22.60;15.17;;;8.70;94.60;;;;;;4998069;28;20034;-68
2022/03/02 11:32:45;;;;;;;21.30;15.47;;;8.70;95.00;;;;;;5005610;28;20109;-67
2022/03/02 11:35:13;;;;;;;24.23;15.07;;;;;;;;;;4993573;28;20106;-67
2022/03/02 11:37:39;;;;;;;23.13;15.27;;;;;;;;;;4989429;28;20027;-67
2022/03/02 11:40:08;;;;;;;22.87;15.00;;;8.70;94.10;;;;;;4998446;28;20486;-66
2022/03/02 11:42:37;;;;;;;22.57;14.33;;;8.90;83.60;;;;;;5007894;28;20112;-67
2022/03/02 11:45:04;;;;;;;21.97;13.93;;;8.90;84.30;;;;;;5007305;28;20038;-66
2022/03/02 11:47:38;;;;;;;21.17;15.93;;;9.10;93.80;;;;;;5006835;28;20133;-67
2022/03/02 11:50:06;;;;;;;21.48;15.85;;;8.90;94.10;;;;;;5004171;28;20080;-67
2022/03/02 11:52:35;;;;;;;20.07;14.60;;;8.90;83.90;;;;;;4991534;28;20030;-67
2022/03/02 11:55:08;;;;;;;18.27;13.70;;;8.90;82.60;;;;;;5007999;28;20040;-67
2022/03/02 11:57:41;;;;;;;21.80;14.90;;;8.90;94.40;;;;;;4991335;28;20474;-67
2022/03/02 12:00:11;;;;;;;20.93;14.30;;;8.90;93.70;;;;;;5008617;28;20030;-67
2022/03/02 12:02:41;;;;;;;18.57;13.07;;;8.90;82.90;;;;;;5004702;28;20058;-67
2022/03/02 12:05:07;;;;;;;18.97;12.77;;;8.80;84.80;;;;;;5006648;28;20034;-66
2022/03/02 12:07:36;;;;;;;19.20;12.97;;;8.80;94.50;;;;;;5008064;28;20026;-66
2022/03/02 12:10:03;;;;;;;18.17;12.77;;;9.00;94.50;;;;;;5008227;28;20025;-67
2022/03/02 12:12:28;;;;;;;17.43;11.67;;;8.80;94.50;;;;;;5008504;28;20033;-67
2022/03/02 12:15:01;;;;;;;20.87;14.40;;;8.90;83.10;;;;;;5009514;28;20026;-67
2022/03/02 12:17:30;;;;;;;17.63;11.97;;;8.80;93.90;;;;;;5012201;28;20490;-67
2022/03/02 12:19:59;;;;;;;19.23;13.07;;;8.90;94.10;;;;;;5012034;28;20076;-67
2022/03/02 12:22:36;;;;;;;14.53;11.23;;;9.10;89.40;;;;;;5012389;28;20037;-66
2022/03/02 12:25:04;;;;;;;19.47;13.73;;;9.00;82.50;;;;;;4994687;28;20037;-67
2022/03/02 12:27:30;;;;;;;23.13;16.50;;;;;;;;;;5011943;28;20037;-67
2022/03/02 12:30:04;;;;;;;17.33;13.27;;;9.10;93.30;;;;;;5011507;28;20025;-67
2022/03/02 12:32:32;;;;;;;19.37;12.57;;;9.20;93.50;;;;;;4994821;28;20040;-67
2022/03/02 12:34:59;;;;;;;23.07;14.37;;;9.30;82.40;;;;;;5011614;28;20029;-67
2022/03/02 12:37:27;;;;;;;23.50;14.80;;;9.30;81.80;;;;;;5011773;28;20030;-67
2022/03/02 12:39:53;;;;;;;19.87;14.10;;;;;;;;;;5010610;28;20030;-67
2022/03/02 12:42:20;;;;;;;20.87;14.07;;;9.40;93.30;;;;;;5011800;28;20028;-67
2022/03/02 12:44:54;;;;;;;19.17;12.97;;;9.30;92.90;;;;;;5011385;28;20033;-67
2022/03/02 12:47:28;;;;;;;19.27;14.88;;;9.30;92.70;;;;;;5011577;28;20438;-67
2022/03/02 12:49:55;;;;;;;20.67;15.20;;;9.30;92.90;;;;;;5011323;28;20212;-67
2022/03/02 12:52:22;;;;;;;21.40;14.00;;;9.50;92.90;;;;;;5011217;28;20116;-67